Time;durP1;ratioP1;P1;durP2;ratioP2;P2;SDS_P1;SDS_P2;PMS_P1;PMS_P2;Temp;Humidity;BMP_temperature;BMP_pressure;BME280_temperature;BME280_humidity;BME280_pressure;Samples;Min_cycle;Max_cycle;Signal;HPM_P1;HPM_P2
2022/12/21 00:02:13;;;;;;;3.20;2.90;;;10.10;99.90;;;;;;5095903;28;20587;-83
2022/12/21 00:04:38;;;;;;;3.90;2.97;;;10.10;99.90;;;;;;5061045;28;20196;-84
2022/12/21 00:07:04;;;;;;;6.83;3.13;;;10.00;99.90;;;;;;5077155;28;20228;-83
2022/12/21 00:09:29;;;;;;;3.43;3.00;;;10.10;99.90;;;;;;5095963;28;20629;-84
2022/12/21 00:11:55;;;;;;;2.73;2.33;;;10.00;99.90;;;;;;5095801;28;20212;-84
2022/12/21 00:14:20;;;;;;;2.90;2.60;;;10.00;99.90;;;;;;5095809;28;20211;-83
2022/12/21 00:16:46;;;;;;;4.80;2.47;;;10.00;99.90;;;;;;5077560;28;20271;-85
2022/12/21 00:19:14;;;;;;;3.83;2.90;;;10.00;99.90;;;;;;5095848;28;20183;-83
2022/12/21 00:21:40;;;;;;;2.95;2.20;;;10.00;99.90;;;;;;5095701;28;20207;-84
2022/12/21 00:24:05;;;;;;;3.53;2.27;;;10.00;99.90;;;;;;5077249;28;20188;-83
2022/12/21 00:26:35;;;;;;;4.83;2.83;;;10.00;99.90;;;;;;5077583;28;20418;-83
2022/12/21 00:29:02;;;;;;;5.70;3.05;;;10.00;99.90;;;;;;5076698;28;20244;-83
2022/12/21 00:31:40;;;;;;;6.43;3.00;;;10.00;99.90;;;;;;5060657;28;20199;-83
2022/12/21 00:34:06;;;;;;;7.70;3.00;;;10.00;99.90;;;;;;5076911;28;20889;-84
2022/12/21 00:36:32;;;;;;;3.00;2.40;;;10.00;99.90;;;;;;5095618;28;20199;-84
2022/12/21 00:38:58;;;;;;;3.67;3.22;;;10.00;99.90;;;;;;5094706;28;20183;-84
2022/12/21 00:41:26;;;;;;;2.80;2.60;;;9.90;99.90;;;;;;5095302;28;20180;-84
2022/12/21 00:43:55;;;;;;;5.53;2.65;;;9.90;99.90;;;;;;5095139;28;20814;-84
2022/12/21 00:46:23;;;;;;;2.55;2.35;;;9.90;99.90;;;;;;5061223;28;20230;-84
2022/12/21 00:48:49;;;;;;;3.15;2.80;;;9.90;99.90;;;;;;5095067;28;20191;-84
2022/12/21 00:51:18;;;;;;;2.77;2.40;;;9.90;99.90;;;;;;5060699;28;20556;-84
2022/12/21 00:53:44;;;;;;;3.55;2.05;;;9.90;99.90;;;;;;5095267;28;20176;-83
2022/12/21 00:56:11;;;;;;;5.15;3.20;;;9.90;99.90;;;;;;5095031;28;20541;-83
2022/12/21 00:58:37;;;;;;;2.33;2.13;;;9.90;99.90;;;;;;5094879;28;20227;-83
2022/12/21 01:01:15;;;;;;;2.95;2.65;;;9.90;99.90;;;;;;5076419;28;20651;-84
2022/12/21 01:03:41;;;;;;;3.40;2.80;;;9.80;99.90;;;;;;5077152;28;20180;-83
2022/12/21 01:06:13;;;;;;;3.92;3.53;;;9.90;99.90;;;;;;5094063;28;20267;-83
2022/12/21 01:08:39;;;;;;;3.85;3.22;;;9.90;99.90;;;;;;5094557;28;20165;-83
2022/12/21 01:11:04;;;;;;;2.70;2.50;;;9.80;99.90;;;;;;5076631;28;20188;-83
2022/12/21 01:13:32;;;;;;;2.90;2.70;;;9.80;99.90;;;;;;5076605;28;20244;-84
2022/12/21 01:15:58;;;;;;;3.13;2.80;;;9.90;99.90;;;;;;5076180;28;20568;-84
2022/12/21 01:18:24;;;;;;;4.40;2.67;;;10.00;99.90;;;;;;5077144;28;20192;-84
2022/12/21 01:20:52;;;;;;;7.00;2.58;;;10.00;99.90;;;;;;5094332;28;20552;-85
2022/12/21 01:23:19;;;;;;;4.47;2.72;;;10.10;99.90;;;;;;5094604;28;20532;-84
2022/12/21 01:25:45;;;;;;;3.85;3.30;;;10.10;99.90;;;;;;5076572;28;20268;-83
2022/12/21 01:28:12;;;;;;;3.85;3.45;;;10.20;99.90;;;;;;5076291;28;20697;-83
2022/12/21 01:30:41;;;;;;;3.55;3.25;;;10.20;99.90;;;;;;5094548;28;20184;-83
2022/12/21 01:33:09;;;;;;;5.25;3.40;;;10.10;99.90;;;;;;5094512;28;20517;-83
2022/12/21 01:35:40;;;;;;;4.13;3.83;;;10.20;99.90;;;;;;5094475;28;20222;-83
2022/12/21 01:38:06;;;;;;;4.85;3.40;;;10.20;99.90;;;;;;5094081;28;20196;-84
2022/12/21 01:40:31;;;;;;;5.15;3.90;;;10.20;99.90;;;;;;5076381;28;20189;-83
2022/12/21 01:42:57;;;;;;;4.23;3.70;;;10.20;99.90;;;;;;5094230;28;20185;-84
2022/12/21 01:45:27;;;;;;;3.77;3.47;;;10.20;99.90;;;;;;5096830;28;20249;-83
2022/12/21 01:48:01;;;;;;;3.17;2.88;;;10.20;99.90;;;;;;5097928;28;20176;-84
2022/12/21 01:50:57;;;;;;;4.10;3.70;;;10.10;99.90;;;;;;5098357;28;20266;-84
2022/12/21 01:53:36;;;;;;;4.32;3.17;;;10.10;99.90;;;;;;5098580;28;20181;-83
2022/12/21 01:56:05;;;;;;;3.92;3.53;;;10.00;99.90;;;;;;5098106;28;20208;-84
2022/12/21 01:58:32;;;;;;;5.32;3.20;;;10.10;99.90;;;;;;5080043;28;20184;-84
2022/12/21 02:00:59;;;;;;;3.20;2.85;;;10.00;99.90;;;;;;5063086;28;20184;-84
2022/12/21 02:03:49;;;;;;;3.60;2.83;;;10.00;99.90;;;;;;5098420;28;20176;-84
2022/12/21 02:06:40;;;;;;;3.20;2.70;;;10.00;99.90;;;;;;5066360;28;20628;-84
2022/12/21 02:09:07;;;;;;;3.20;2.88;;;10.00;99.90;;;;;;5097915;28;20168;-84
2022/12/21 02:11:33;;;;;;;3.25;2.95;;;10.00;99.90;;;;;;5098074;28;20211;-83
2022/12/21 02:13:58;;;;;;;3.70;3.40;;;10.00;99.90;;;;;;5079908;28;20184;-84
2022/12/21 02:16:37;;;;;;;8.13;3.53;;;10.00;99.90;;;;;;5063332;28;20640;-84
2022/12/21 02:19:15;;;;;;;3.95;2.83;;;10.10;99.90;;;;;;5079457;28;20237;-84
2022/12/21 02:21:52;;;;;;;3.20;2.90;;;10.00;99.90;;;;;;5095117;28;20608;-84
2022/12/21 02:24:56;;;;;;;3.60;3.30;;;10.00;99.90;;;;;;5093897;28;20172;-83
2022/12/21 02:27:35;;;;;;;5.30;3.13;;;10.00;99.90;;;;;;5079656;28;20192;-84
2022/12/21 02:30:11;;;;;;;5.47;3.53;;;10.00;99.90;;;;;;5079524;28;20522;-84
2022/12/21 02:32:37;;;;;;;3.83;3.53;;;10.00;99.90;;;;;;5097542;28;20233;-84
2022/12/21 02:35:21;;;;;;;4.03;3.17;;;10.00;99.90;;;;;;5079602;28;20607;-84
2022/12/21 02:38:16;;;;;;;3.90;3.17;;;10.00;99.90;;;;;;5097717;28;20193;-84
2022/12/21 02:41:02;;;;;;;4.82;3.10;;;10.00;99.90;;;;;;5077437;28;20207;-84
2022/12/21 02:46:36;;;;;;;4.95;3.20;;;9.90;99.90;;;;;;5097430;28;20214;-83
2022/12/21 02:49:06;;;;;;;3.67;3.30;;;9.90;99.90;;;;;;5096900;28;20528;-83
2022/12/21 02:51:42;;;;;;;4.63;3.47;;;9.90;99.90;;;;;;5096921;28;20168;-83
2022/12/21 02:54:09;;;;;;;3.67;3.38;;;9.90;99.90;;;;;;5096823;28;20561;-83
2022/12/21 02:56:35;;;;;;;10.02;5.05;;;9.90;99.90;;;;;;5095888;28;20184;-84
2022/12/21 02:59:02;;;;;;;5.10;4.40;;;9.90;99.90;;;;;;5078884;28;20693;-84
2022/12/21 03:01:28;;;;;;;5.18;3.40;;;9.90;99.90;;;;;;5097237;28;20506;-83
2022/12/21 03:04:17;;;;;;;7.73;3.90;;;9.90;99.90;;;;;;5097177;28;20187;-83
2022/12/21 03:06:46;;;;;;;5.22;4.75;;;9.90;99.90;;;;;;5079016;28;20687;-83
2022/12/21 03:09:39;;;;;;;5.97;4.50;;;9.90;99.90;;;;;;5096522;28;20546;-83
2022/12/21 03:12:23;;;;;;;6.68;4.63;;;10.00;99.90;;;;;;5097427;28;20218;-84
2022/12/21 03:15:10;;;;;;;7.03;4.55;;;9.90;99.90;;;;;;5097345;28;20204;-83
2022/12/21 03:17:36;;;;;;;5.30;4.35;;;9.80;99.90;;;;;;5097327;28;20234;-82
2022/12/21 03:20:14;;;;;;;9.80;5.60;;;9.90;99.90;;;;;;5078782;28;20185;-83
2022/12/21 03:22:46;;;;;;;5.95;4.78;;;9.90;99.90;;;;;;5096920;28;20176;-83
2022/12/21 03:25:28;;;;;;;6.80;5.70;;;9.90;99.90;;;;;;5096504;28;20520;-83
2022/12/21 03:27:57;;;;;;;6.20;4.18;;;10.00;99.90;;;;;;5096854;28;20172;-83
2022/12/21 03:30:25;;;;;;;7.32;5.30;;;9.90;99.90;;;;;;5096841;28;20181;-83
2022/12/21 03:32:59;;;;;;;4.80;4.40;;;9.90;99.90;;;;;;5078676;28;20543;-82
2022/12/21 03:35:25;;;;;;;6.07;5.28;;;9.90;99.90;;;;;;5096461;28;20192;-82
2022/12/21 03:37:53;;;;;;;11.77;5.32;;;9.80;99.90;;;;;;5078185;28;20260;-82
2022/12/21 03:40:24;;;;;;;12.90;6.03;;;9.80;99.90;;;;;;5096036;28;20267;-83
2022/12/21 03:43:19;;;;;;;6.20;4.57;;;9.90;99.90;;;;;;5096282;28;20168;-83
2022/12/21 03:45:57;;;;;;;10.45;5.07;;;9.90;99.90;;;;;;5096483;28;20286;-83
2022/12/21 03:48:37;;;;;;;9.30;5.97;;;9.90;99.90;;;;;;5095923;28;20255;-83
2022/12/21 03:51:14;;;;;;;8.00;5.55;;;9.90;99.90;;;;;;5096148;28;20167;-83
2022/12/21 03:53:53;;;;;;;11.88;6.35;;;9.90;99.90;;;;;;5095948;28;20643;-83
2022/12/21 03:56:29;;;;;;;9.75;6.40;;;9.80;99.90;;;;;;5096144;28;20987;-83
2022/12/21 03:58:55;;;;;;;9.45;6.35;;;9.80;99.90;;;;;;5078231;28;20195;-83
2022/12/21 04:01:40;;;;;;;9.10;6.70;;;9.80;99.90;;;;;;5096056;28;20738;-83
2022/12/21 04:04:17;;;;;;;7.03;6.32;;;9.80;99.90;;;;;;5095519;28;20216;-82
2022/12/21 04:06:47;;;;;;;8.98;7.07;;;9.80;99.90;;;;;;5096041;28;20215;-83
2022/12/21 04:09:13;;;;;;;8.25;6.55;;;9.80;99.90;;;;;;5095342;28;20212;-83
2022/12/21 04:14:22;;;;;;;9.25;6.43;;;9.70;99.90;;;;;;5095233;28;20273;-83
2022/12/21 04:16:48;;;;;;;10.43;7.80;;;9.70;99.90;;;;;;5095610;28;20200;-83
2022/12/21 04:21:58;;;;;;;8.10;6.43;;;9.70;99.90;;;;;;5080458;28;20259;-83
2022/12/21 04:29:54;;;;;;;11.07;6.95;;;9.70;99.90;;;;;;5095579;28;20182;-83
2022/12/21 04:32:19;;;;;;;6.47;5.83;;;9.70;99.90;;;;;;5095445;28;20267;-83
2022/12/21 04:34:45;;;;;;;9.10;7.00;;;9.80;99.90;;;;;;5095138;28;20242;-83
2022/12/21 04:39:55;;;;;;;6.47;5.80;;;9.70;99.90;;;;;;5095478;28;20183;-83
2022/12/21 04:42:20;;;;;;;7.60;6.37;;;9.70;99.90;;;;;;5094925;28;20278;-83
2022/12/21 04:44:46;;;;;;;7.57;6.77;;;9.60;99.90;;;;;;5095505;28;20189;-82
2022/12/21 04:47:11;;;;;;;12.07;5.90;;;9.60;99.90;;;;;;5077697;28;20541;-83
2022/12/21 04:49:37;;;;;;;7.40;6.47;;;9.50;99.90;;;;;;5095646;28;20267;-82
2022/12/21 04:52:02;;;;;;;8.40;5.93;;;9.50;99.90;;;;;;5077518;28;20606;-84
2022/12/21 04:54:28;;;;;;;5.80;5.13;;;9.50;99.90;;;;;;5077496;28;20246;-83
2022/12/21 04:56:53;;;;;;;5.93;5.33;;;9.50;99.90;;;;;;5094860;28;20322;-83
2022/12/21 04:59:19;;;;;;;5.57;4.97;;;9.50;99.90;;;;;;5095166;28;20180;-83
2022/12/21 05:01:45;;;;;;;6.27;5.67;;;9.50;99.90;;;;;;5077084;28;20188;-83
2022/12/21 05:04:10;;;;;;;6.23;5.63;;;9.50;99.90;;;;;;5094570;28;20628;-83
2022/12/21 05:06:36;;;;;;;6.00;5.47;;;9.50;99.90;;;;;;5076244;28;20231;-84
2022/12/21 05:09:02;;;;;;;6.90;5.70;;;9.40;99.90;;;;;;5094709;28;20192;-83
2022/12/21 05:11:28;;;;;;;7.70;5.77;;;9.40;99.90;;;;;;5076431;28;20422;-83
2022/12/21 05:13:53;;;;;;;7.37;5.40;;;9.40;99.90;;;;;;5094868;28;20407;-84
2022/12/21 05:16:22;;;;;;;5.80;5.20;;;9.50;99.90;;;;;;5094329;28;20180;-84
2022/12/21 05:18:48;;;;;;;8.80;6.63;;;9.50;99.90;;;;;;5094175;28;20176;-84
2022/12/21 05:21:14;;;;;;;6.30;5.70;;;9.40;99.90;;;;;;5094272;28;20184;-84
2022/12/21 05:23:40;;;;;;;7.32;5.30;;;9.40;99.90;;;;;;5094850;28;20191;-84
2022/12/21 05:26:07;;;;;;;6.00;5.50;;;9.50;99.90;;;;;;5094416;28;20192;-84
2022/12/21 05:28:32;;;;;;;7.35;6.60;;;9.50;99.90;;;;;;5094735;28;20172;-84
2022/12/21 05:30:58;;;;;;;7.00;5.53;;;9.50;99.90;;;;;;5076588;28;20192;-84
2022/12/21 05:33:24;;;;;;;7.50;5.67;;;9.50;99.90;;;;;;5094330;28;20580;-84
2022/12/21 05:35:49;;;;;;;5.90;5.30;;;9.50;99.90;;;;;;5094539;28;20203;-85
2022/12/21 05:38:15;;;;;;;6.30;5.67;;;9.50;99.90;;;;;;5093811;28;20658;-85
2022/12/21 05:40:46;;;;;;;5.50;5.00;;;9.60;99.90;;;;;;5076325;28;20550;-85
2022/12/21 05:43:12;;;;;;;6.18;4.82;;;9.50;99.90;;;;;;5094266;28;20179;-84
2022/12/21 05:45:38;;;;;;;7.20;5.33;;;9.50;99.90;;;;;;5093980;28;20188;-84
2022/12/21 05:48:03;;;;;;;5.80;5.30;;;9.50;99.90;;;;;;5076394;28;20226;-84
2022/12/21 05:50:29;;;;;;;5.80;4.60;;;9.60;99.90;;;;;;5093202;28;20271;-85
2022/12/21 05:52:54;;;;;;;5.83;5.23;;;9.50;99.90;;;;;;5094105;28;20665;-84
2022/12/21 05:55:20;;;;;;;7.17;5.00;;;9.60;99.90;;;;;;5093658;28;20296;-84
2022/12/21 05:57:46;;;;;;;5.70;5.20;;;9.60;99.90;;;;;;5094159;28;20263;-85
2022/12/21 06:00:12;;;;;;;6.53;5.50;;;9.60;99.90;;;;;;5076106;28;20184;-84
2022/12/21 06:02:38;;;;;;;8.00;5.13;;;9.60;99.90;;;;;;5076121;28;20430;-84
2022/12/21 06:05:04;;;;;;;6.47;5.37;;;9.60;99.90;;;;;;5077064;28;20192;-83
2022/12/21 06:07:30;;;;;;;6.63;5.68;;;9.60;99.90;;;;;;5093763;28;20271;-83
2022/12/21 06:09:55;;;;;;;7.80;5.23;;;9.60;99.90;;;;;;5076248;28;20214;-84
2022/12/21 06:12:21;;;;;;;5.53;5.03;;;9.60;99.90;;;;;;5093375;28;20414;-84
2022/12/21 06:14:46;;;;;;;5.63;4.93;;;9.50;99.90;;;;;;5093802;28;20215;-83
2022/12/21 06:17:12;;;;;;;8.07;5.00;;;9.60;99.90;;;;;;5094049;28;20633;-84
2022/12/21 06:19:37;;;;;;;4.83;4.33;;;9.60;99.90;;;;;;5093601;28;20206;-84
2022/12/21 06:22:03;;;;;;;4.70;4.30;;;9.60;99.90;;;;;;5075488;28;20192;-83
2022/12/21 06:24:29;;;;;;;6.43;4.30;;;9.50;99.90;;;;;;5093697;28;20195;-83
2022/12/21 06:26:54;;;;;;;4.80;4.40;;;9.50;99.90;;;;;;5094271;28;20180;-83
2022/12/21 06:29:20;;;;;;;5.00;4.60;;;9.50;99.90;;;;;;5093625;28;20203;-83
2022/12/21 06:31:45;;;;;;;5.23;4.60;;;9.50;99.90;;;;;;5096792;28;20643;-84
2022/12/21 06:34:11;;;;;;;5.30;4.80;;;9.50;99.90;;;;;;5097402;28;20234;-84
2022/12/21 06:36:37;;;;;;;4.97;4.47;;;9.50;99.90;;;;;;5097142;28;20224;-84
2022/12/21 06:39:03;;;;;;;5.00;4.50;;;9.50;99.90;;;;;;5062761;28;20426;-84
2022/12/21 06:41:28;;;;;;;6.10;4.63;;;9.50;99.90;;;;;;5079330;28;20245;-84
2022/12/21 06:43:54;;;;;;;10.03;4.83;;;9.50;99.90;;;;;;5079220;28;20192;-84
2022/12/21 06:46:20;;;;;;;4.37;3.97;;;9.50;99.90;;;;;;5078655;28;20602;-83
2022/12/21 06:48:46;;;;;;;6.30;4.70;;;9.40;99.90;;;;;;5079315;28;20220;-84
2022/12/21 06:51:21;;;;;;;5.13;4.60;;;9.40;99.90;;;;;;5097282;28;20538;-83
2022/12/21 06:53:48;;;;;;;6.70;4.75;;;9.40;99.90;;;;;;5097484;28;20179;-84
2022/12/21 06:56:25;;;;;;;5.35;4.68;;;9.30;99.90;;;;;;5096774;28;20200;-84
2022/12/21 06:58:53;;;;;;;4.57;4.18;;;9.40;99.90;;;;;;5097470;28;20176;-84
2022/12/21 07:01:22;;;;;;;7.93;4.20;;;9.40;99.90;;;;;;5078188;28;20187;-84
2022/12/21 07:03:47;;;;;;;5.05;4.25;;;9.40;99.90;;;;;;5097111;28;20215;-83
2022/12/21 07:06:15;;;;;;;6.87;3.03;;;9.40;99.90;;;;;;5094659;28;20675;-84
2022/12/21 07:08:41;;;;;;;4.00;3.58;;;9.30;99.90;;;;;;5076750;28;20568;-84
2022/12/21 07:11:10;;;;;;;7.18;3.67;;;9.30;99.90;;;;;;5076088;28;20234;-83
2022/12/21 07:13:36;;;;;;;6.40;5.18;;;9.30;99.90;;;;;;5076017;28;20204;-83
2022/12/21 07:16:02;;;;;;;5.15;4.00;;;9.30;99.90;;;;;;5058181;28;20216;-84
2022/12/21 07:18:28;;;;;;;5.50;4.33;;;9.20;99.90;;;;;;5058028;28;20208;-84
2022/12/21 07:20:57;;;;;;;7.50;4.97;;;9.20;99.90;;;;;;5058341;28;20414;-84
2022/12/21 07:23:24;;;;;;;7.68;5.25;;;9.20;99.90;;;;;;5058411;28;20307;-84
2022/12/21 07:25:50;;;;;;;8.50;5.53;;;9.20;99.90;;;;;;5076240;28;20203;-84
2022/12/21 07:28:15;;;;;;;9.77;4.73;;;9.10;99.90;;;;;;5058640;28;20271;-84
2022/12/21 07:30:41;;;;;;;8.00;4.93;;;9.20;99.90;;;;;;5041654;28;20200;-84
2022/12/21 07:33:07;;;;;;;6.37;5.00;;;9.20;99.90;;;;;;5058080;28;20544;-84
2022/12/21 07:35:32;;;;;;;7.87;4.67;;;9.20;99.90;;;;;;5075921;28;20580;-84
2022/12/21 07:37:58;;;;;;;6.57;4.47;;;9.10;99.90;;;;;;5076282;28;20284;-84
2022/12/21 07:40:24;;;;;;;6.20;4.00;;;9.10;99.90;;;;;;5075390;28;20177;-84
2022/12/21 07:42:49;;;;;;;6.60;4.27;;;9.10;99.90;;;;;;5075208;28;20185;-84
2022/12/21 07:45:15;;;;;;;9.60;3.87;;;9.10;99.90;;;;;;5075559;28;20288;-85
2022/12/21 07:47:41;;;;;;;5.97;4.50;;;9.10;99.90;;;;;;5057964;28;20196;-84
2022/12/21 07:50:07;;;;;;;5.20;3.80;;;9.20;99.90;;;;;;5076367;28;20173;-83
2022/12/21 07:52:34;;;;;;;6.63;4.90;;;9.10;99.90;;;;;;5075422;28;20578;-83
2022/12/21 07:55:00;;;;;;;8.85;4.70;;;9.10;99.90;;;;;;5041493;28;20220;-82
2022/12/21 07:57:26;;;;;;;8.13;5.35;;;9.10;99.90;;;;;;5075415;28;20667;-82
2022/12/21 07:59:51;;;;;;;5.53;4.37;;;9.20;99.90;;;;;;5076186;28;20185;-82
2022/12/21 08:02:17;;;;;;;7.30;6.30;;;9.20;99.90;;;;;;5076107;28;20185;-82
2022/12/21 08:04:43;;;;;;;9.40;6.83;;;9.20;99.90;;;;;;5057579;28;20239;-82
2022/12/21 08:07:08;;;;;;;5.60;5.00;;;9.30;99.90;;;;;;5062727;28;20227;-83
2022/12/21 08:09:35;;;;;;;9.30;5.83;;;9.30;99.90;;;;;;5060819;28;20966;-82
2022/12/21 08:12:01;;;;;;;5.85;4.20;;;9.30;99.90;;;;;;5095787;28;20406;-81
2022/12/21 08:14:26;;;;;;;9.23;3.95;;;9.30;99.90;;;;;;5095478;28;20230;-82
2022/12/21 08:16:52;;;;;;;4.30;3.77;;;9.30;99.90;;;;;;5074222;28;20575;-82
2022/12/21 08:19:18;;;;;;;8.57;4.20;;;9.30;99.90;;;;;;5059867;28;20189;-82
2022/12/21 08:21:44;;;;;;;4.53;4.00;;;9.40;99.90;;;;;;5057266;28;20434;-82
2022/12/21 08:24:10;;;;;;;4.93;3.70;;;9.30;99.90;;;;;;5075441;28;20181;-82
2022/12/21 08:26:37;;;;;;;3.80;3.42;;;9.40;99.90;;;;;;5059499;28;20202;-82
2022/12/21 08:29:03;;;;;;;7.93;4.55;;;9.40;99.90;;;;;;5040909;28;20736;-80
2022/12/21 08:31:28;;;;;;;4.50;4.00;;;9.40;99.90;;;;;;5074702;28;20185;-80
2022/12/21 08:33:54;;;;;;;5.93;5.23;;;9.40;99.90;;;;;;5074679;28;20189;-82
2022/12/21 08:36:22;;;;;;;12.37;7.10;;;9.40;99.90;;;;;;5056910;28;20657;-82
2022/12/21 08:38:47;;;;;;;7.15;6.55;;;9.50;99.90;;;;;;5074609;28;20181;-82
2022/12/21 08:41:14;;;;;;;7.13;6.43;;;9.40;99.90;;;;;;5074052;28;20754;-87
2022/12/21 08:43:40;;;;;;;6.03;5.43;;;9.40;99.90;;;;;;5073952;28;20921;-87
2022/12/21 08:46:07;;;;;;;4.20;3.80;;;9.40;99.90;;;;;;5023575;28;20189;-87
2022/12/21 08:48:33;;;;;;;4.82;4.30;;;9.40;99.90;;;;;;5056040;28;20632;-88
2022/12/21 08:50:59;;;;;;;6.47;3.42;;;9.40;99.90;;;;;;5074467;28;20548;-81
2022/12/21 08:53:26;;;;;;;5.57;4.15;;;9.50;99.90;;;;;;5075275;28;20191;-81
2022/12/21 08:55:53;;;;;;;4.75;4.13;;;9.50;99.90;;;;;;5075610;28;20207;-81
2022/12/21 08:58:19;;;;;;;5.40;4.93;;;9.50;99.90;;;;;;5075638;28;20180;-82
2022/12/21 09:00:45;;;;;;;6.30;5.53;;;9.40;99.90;;;;;;5075115;28;20185;-81
2022/12/21 09:03:11;;;;;;;8.95;5.20;;;9.40;99.90;;;;;;5041019;28;20415;-81
2022/12/21 09:05:38;;;;;;;9.55;5.10;;;9.40;99.90;;;;;;5074800;28;20245;-81
2022/12/21 09:08:04;;;;;;;4.72;4.32;;;9.50;99.90;;;;;;5092452;28;20277;-81
2022/12/21 09:10:32;;;;;;;6.75;4.13;;;9.60;99.90;;;;;;5095357;28;20178;-81
2022/12/21 09:12:58;;;;;;;4.70;3.13;;;9.60;99.90;;;;;;5076929;28;20176;-80
2022/12/21 09:15:24;;;;;;;7.17;4.90;;;9.70;99.90;;;;;;5077217;28;20307;-81
2022/12/21 09:17:50;;;;;;;7.80;4.67;;;9.50;99.90;;;;;;5095491;28;20629;-81
2022/12/21 09:20:17;;;;;;;5.93;4.60;;;9.50;99.90;;;;;;5077246;28;20180;-81
2022/12/21 09:22:42;;;;;;;4.53;3.83;;;9.40;99.90;;;;;;5060581;28;20526;-81
2022/12/21 09:25:08;;;;;;;5.43;4.60;;;9.40;99.90;;;;;;5095326;28;20217;-81
2022/12/21 09:27:34;;;;;;;10.25;5.90;;;9.40;99.90;;;;;;5060721;28;20553;-82
2022/12/21 09:29:59;;;;;;;10.63;7.23;;;9.50;99.90;;;;;;5095799;28;20176;-81
2022/12/21 09:32:26;;;;;;;9.17;6.87;;;9.40;99.90;;;;;;5077660;28;20241;-80
2022/12/21 09:34:52;;;;;;;12.48;8.13;;;9.40;99.90;;;;;;5077574;28;20200;-81
2022/12/21 09:37:18;;;;;;;13.15;8.07;;;9.50;99.90;;;;;;5095460;28;20191;-82
2022/12/21 09:39:44;;;;;;;10.73;7.93;;;9.50;99.90;;;;;;5077095;28;20184;-81
2022/12/21 09:42:28;;;;;;;9.38;8.38;;;9.50;99.90;;;;;;5095106;28;20413;-82
2022/12/21 09:45:10;;;;;;;9.35;8.02;;;9.50;99.90;;;;;;5095089;28;20195;-82
2022/12/21 09:47:53;;;;;;;13.00;9.05;;;9.50;99.90;;;;;;5094586;28;20168;-81
2022/12/21 09:50:22;;;;;;;12.60;9.25;;;9.50;99.90;;;;;;5076851;28;20644;-82
2022/12/21 09:52:58;;;;;;;10.57;8.13;;;9.40;99.90;;;;;;5095244;28;20168;-81
2022/12/21 09:55:27;;;;;;;13.27;9.77;;;9.40;99.90;;;;;;5095069;28;20207;-82
2022/12/21 09:57:54;;;;;;;11.30;9.02;;;9.40;99.90;;;;;;5094885;28;20180;-82
2022/12/21 10:00:24;;;;;;;12.05;8.75;;;9.50;99.90;;;;;;5094788;28;20191;-81
2022/12/21 10:03:14;;;;;;;13.00;9.45;;;9.50;99.90;;;;;;5095372;28;20176;-81
2022/12/21 10:06:15;;;;;;;13.20;8.55;;;9.60;99.90;;;;;;5077824;28;20267;-81
2022/12/21 10:08:54;;;;;;;14.52;9.68;;;9.60;99.90;;;;;;5098998;28;20192;-81
2022/12/21 10:11:42;;;;;;;15.82;10.75;;;9.70;99.90;;;;;;5080907;28;20184;-81
2022/12/21 10:14:42;;;;;;;14.95;9.93;;;9.70;99.90;;;;;;5081096;28;20184;-83
2022/12/21 10:17:30;;;;;;;20.23;10.60;;;10.00;99.90;;;;;;5081126;28;20192;-80
2022/12/21 10:20:40;;;;;;;13.15;9.20;;;10.10;99.90;;;;;;5098907;28;20194;-81
2022/12/21 10:23:20;;;;;;;14.25;9.90;;;10.10;99.90;;;;;;5042184;28;20234;-81
2022/12/21 10:25:50;;;;;;;15.40;10.18;;;9.90;99.90;;;;;;5099156;28;20528;-81
2022/12/21 10:28:36;;;;;;;15.80;10.73;;;9.80;99.90;;;;;;5098642;28;20210;-81
2022/12/21 10:31:08;;;;;;;11.98;8.68;;;9.70;99.90;;;;;;5098603;28;20168;-81
2022/12/21 10:33:39;;;;;;;11.80;8.50;;;9.70;99.90;;;;;;5098774;28;20204;-81
2022/12/21 10:36:05;;;;;;;12.73;8.60;;;9.60;99.90;;;;;;5098824;28;20184;-81
2022/12/21 10:38:35;;;;;;;12.43;8.10;;;9.80;99.90;;;;;;5080735;28;20188;-82
2022/12/21 10:41:06;;;;;;;11.27;7.38;;;10.00;99.90;;;;;;5080375;28;20211;-81
2022/12/21 10:43:37;;;;;;;16.55;8.73;;;10.20;99.90;;;;;;5079694;28;20190;-81
2022/12/21 10:46:03;;;;;;;13.52;8.45;;;10.60;99.90;;;;;;5080088;28;20195;-81
2022/12/21 10:48:29;;;;;;;16.07;9.80;;;10.60;99.90;;;;;;5098488;28;20546;-81
2022/12/21 10:50:59;;;;;;;17.30;10.27;;;10.60;99.90;;;;;;5098140;28;20437;-81
2022/12/21 10:53:27;;;;;;;12.40;7.28;;;10.50;99.90;;;;;;5079931;28;20446;-81
2022/12/21 10:55:56;;;;;;;13.55;7.88;;;10.30;99.90;;;;;;5098127;28;20224;-81
2022/12/21 10:58:31;;;;;;;13.30;8.23;;;10.20;99.90;;;;;;5098463;28;20176;-81
2022/12/21 11:01:06;;;;;;;12.15;6.80;;;10.00;99.90;;;;;;5098209;28;20221;-81
2022/12/21 11:03:37;;;;;;;22.48;7.85;;;10.00;99.90;;;;;;5097977;28;20176;-82
2022/12/21 11:06:16;;;;;;;8.55;5.05;;;10.00;99.90;;;;;;5080213;28;20196;-81
2022/12/21 11:08:46;;;;;;;13.65;5.32;;;9.90;99.90;;;;;;5098354;28;20204;-81
2022/12/21 11:11:35;;;;;;;10.18;5.43;;;9.80;99.90;;;;;;5080137;28;20642;-80
2022/12/21 11:14:12;;;;;;;9.75;4.88;;;9.80;99.90;;;;;;5080109;28;20192;-80
2022/12/21 11:16:38;;;;;;;7.70;4.50;;;9.80;99.90;;;;;;5079111;28;20783;-81
2022/12/21 11:19:10;;;;;;;5.53;3.55;;;9.70;99.90;;;;;;5063185;28;20188;-79
2022/12/21 11:21:45;;;;;;;6.88;3.55;;;9.70;99.90;;;;;;5097715;28;20213;-80
2022/12/21 11:24:19;;;;;;;9.45;4.47;;;9.60;99.90;;;;;;5098285;28;20178;-80
2022/12/21 11:26:53;;;;;;;7.45;3.55;;;9.50;99.90;;;;;;5079764;28;20220;-80
2022/12/21 11:29:32;;;;;;;7.63;3.17;;;9.50;99.90;;;;;;5098805;28;20211;-80
2022/12/21 11:32:11;;;;;;;9.60;3.35;;;9.50;99.90;;;;;;5098232;28;20188;-80
2022/12/21 11:34:49;;;;;;;8.55;3.55;;;9.60;99.90;;;;;;5079653;28;20211;-80
2022/12/21 11:37:44;;;;;;;8.95;3.40;;;9.80;99.90;;;;;;5098052;28;20215;-80
2022/12/21 11:40:24;;;;;;;7.85;3.40;;;10.00;99.90;;;;;;5097711;28;20189;-80
2022/12/21 11:42:59;;;;;;;9.20;3.10;;;10.30;99.90;;;;;;5097960;28;20529;-80
2022/12/21 11:45:43;;;;;;;5.30;2.80;;;10.30;99.90;;;;;;5097039;28;20270;-81
2022/12/21 11:48:15;;;;;;;8.98;3.75;;;10.20;99.90;;;;;;5079652;28;20628;-80
2022/12/21 11:50:54;;;;;;;8.15;3.15;;;10.00;99.90;;;;;;5097502;28;20203;-80
2022/12/21 11:53:35;;;;;;;7.50;3.35;;;10.00;99.90;;;;;;5097516;28;20168;-80
2022/12/21 11:56:20;;;;;;;8.15;3.25;;;10.00;99.90;;;;;;5079434;28;20226;-80
2022/12/21 11:59:16;;;;;;;4.97;2.60;;;10.10;99.90;;;;;;5079117;28;20696;-80
2022/12/21 12:01:42;;;;;;;9.23;3.25;;;10.00;99.90;;;;;;5079209;28;20648;-80
2022/12/21 12:04:25;;;;;;;5.73;2.97;;;10.10;99.90;;;;;;5097204;28;20184;-80
2022/12/21 12:07:10;;;;;;;5.00;2.80;;;9.90;99.90;;;;;;5096748;28;20236;-80
2022/12/21 12:09:57;;;;;;;6.30;2.88;;;9.90;99.90;;;;;;5096346;28;20172;-81
2022/12/21 12:12:51;;;;;;;4.80;2.90;;;9.90;99.90;;;;;;5096832;28;20179;-80
2022/12/21 12:15:19;;;;;;;7.95;3.40;;;10.00;99.90;;;;;;5078463;28;20211;-80
2022/12/21 12:18:10;;;;;;;10.68;2.70;;;10.20;99.90;;;;;;5078505;28;20200;-80
2022/12/21 12:20:51;;;;;;;6.57;3.40;;;10.40;99.90;;;;;;5096513;28;20527;-80
2022/12/21 12:23:36;;;;;;;7.90;3.25;;;10.50;99.90;;;;;;5097007;28;20172;-83
2022/12/21 12:26:29;;;;;;;7.18;3.70;;;10.70;99.90;;;;;;5096520;28;20580;-80
2022/12/21 12:29:25;;;;;;;3.92;2.40;;;10.70;99.90;;;;;;5077730;28;20181;-80
2022/12/21 12:32:22;;;;;;;9.23;2.65;;;10.60;99.90;;;;;;5078222;28;20514;-80
2022/12/21 12:35:05;;;;;;;8.05;3.30;;;10.70;99.90;;;;;;5096006;28;20212;-80
2022/12/21 12:37:45;;;;;;;7.28;3.03;;;10.60;99.90;;;;;;5077898;28;20188;-85
2022/12/21 12:40:22;;;;;;;7.57;2.42;;;10.70;99.90;;;;;;5078457;28;20198;-80
2022/12/21 12:42:52;;;;;;;8.57;2.63;;;10.70;99.90;;;;;;5095947;28;20172;-80
2022/12/21 12:45:32;;;;;;;4.53;2.60;;;10.80;99.90;;;;;;5095779;28;20191;-83
2022/12/21 12:48:19;;;;;;;6.63;2.92;;;10.60;99.90;;;;;;5096578;28;20248;-80
2022/12/21 12:50:50;;;;;;;5.05;2.75;;;10.60;99.90;;;;;;5096107;28;20508;-80
2022/12/21 12:53:31;;;;;;;5.03;1.92;;;10.40;99.90;;;;;;5096288;28;20231;-80
2022/12/21 12:56:28;;;;;;;9.07;3.13;;;10.50;99.90;;;;;;5077966;28;20211;-80
2022/12/21 12:59:08;;;;;;;6.35;2.80;;;10.50;99.90;;;;;;5095878;28;20261;-80
2022/12/21 13:02:09;;;;;;;5.78;2.30;;;10.50;99.90;;;;;;5095893;28;20528;-81
2022/12/21 13:05:01;;;;;;;7.07;2.53;;;10.70;99.90;;;;;;5072303;28;20184;-81
2022/12/21 13:07:37;;;;;;;9.80;3.47;;;10.80;99.90;;;;;;5096105;28;20243;-81
2022/12/21 13:10:08;;;;;;;9.30;3.33;;;10.90;99.90;;;;;;5077821;28;20184;-81
2022/12/21 13:12:55;;;;;;;3.65;2.70;;;11.00;99.90;;;;;;5095569;28;20239;-81
2022/12/21 13:15:30;;;;;;;4.50;2.95;;;11.00;99.90;;;;;;5077606;28;20611;-81
2022/12/21 13:17:55;;;;;;;4.05;3.15;;;11.10;99.90;;;;;;5095331;28;20209;-81
2022/12/21 13:20:22;;;;;;;3.40;2.20;;;11.20;99.90;;;;;;5077600;28;20274;-81
2022/12/21 13:23:00;;;;;;;6.47;2.72;;;11.20;99.90;;;;;;5077070;28;20191;-81
2022/12/21 13:25:59;;;;;;;5.55;1.50;;;11.20;99.90;;;;;;5095471;28;20600;-80
2022/12/21 13:28:35;;;;;;;2.88;1.63;;;11.20;99.90;;;;;;5095446;28;20183;-81
2022/12/21 13:31:03;;;;;;;2.43;1.77;;;11.30;99.90;;;;;;5077707;28;20186;-81
2022/12/21 13:33:32;;;;;;;10.18;1.85;;;11.20;99.90;;;;;;5095218;28;20406;-81